Michigantown, Indiana
Current Conditions -  °F | °C
As of 7:15 AM on Friday 28 Nov 2014 (Local Time) from KFKR Reporting Station
Scattered Clouds Scattered Clouds  
Wind Chill: 14°   Ceiling: Unl
Heat Index: 22°   Visibility: 10mi
Dew Point: 19°   Wind: 6mph
Humidity: 90%   Direction: 130°SE
Pressure: 30.35"   Gusts: NA
Location:  40.33°N, 86.39°W
Report Text: KFKR 281215Z AUTO 13005KT 10SM SCT080 M06/M07 A3035 RMK AO2 T10561070
Loading
Personal Weather Stations






























Interactive Weather Map New forecast layout! Learn more

10-Day Weather Forecast

Advertisements
Track Severe Weather on mobile